Champion — WCZ7631 — position and weather

sailwx.info

Track history (hours):
 
Tides and Currents Weather Stations Pressure Air Temp Water Temp Dewpoint Dewpoint Depression Visibility Wind Speed Wind Dir Waves Ship Positions

Champion

Owner: MC CULLEY MARINE SERVICES INC, FORT PIERCE, FL. More information available from US FCC via Universal Licensing System and Coast Guard Vessel Documentation Center.

Last reported at 2015-Jan-21 00:33 UTC. Time now 2015-Jan-26 20:34 UTC.
Position N 29°19' W 091°26'.

Length 20 m; draft 1.7 m.

Type: Towing. MMSI: 367005250.

Date/timePositionNaut miles runAvg speedWind from/ knotsBaromVisibWave heightAir tempDewpointWater temp
2015-Jan-21 00:33N 29°19' W 091°26'4 3.6
2015-Jan-20 23:31N 29°22' W 091°24'4 3.7
2015-Jan-20 22:33N 29°24' W 091°21'4 3.6
2015-Jan-20 21:33N 29°27' W 091°18'3 2.6
2015-Jan-20 20:33N 29°29' W 091°16'4 3.5
2015-Jan-20 19:33N 29°32' W 091°15'3 3.5
2015-Jan-20 18:33N 29°35' W 091°12'4 3.7
2015-Jan-20 17:33N 29°37' W 091°08'3 3.1
2015-Jan-20 16:33N 29°38' W 091°05'1 1.1
2015-Jan-20 15:33N 29°39' W 091°06'0 0.0
2015-Jan-20 14:33N 29°39' W 091°06'0 0.0
2015-Jan-20 13:33N 29°39' W 091°06'0 0.0
2015-Jan-20 12:33N 29°39' W 091°06'0 0.0
2015-Jan-20 11:33N 29°39' W 091°06'0 0.0
2015-Jan-20 10:33N 29°39' W 091°06'0 0.0
2015-Jan-20 09:33N 29°39' W 091°06'0 0.0
2015-Jan-20 08:33N 29°39' W 091°06'0 0.0
2015-Jan-20 07:33N 29°39' W 091°06'0 0.0
2015-Jan-20 06:33N 29°39' W 091°06'0 0.0
2015-Jan-20 05:33N 29°39' W 091°06'0 0.0
2015-Jan-20 04:33N 29°39' W 091°06'0 0.0
2015-Jan-20 03:33N 29°39' W 091°06'0 0.0
2015-Jan-20 02:33N 29°39' W 091°06'0 0.0
2015-Jan-20 01:33N 29°39' W 091°06'0 0.0
2015-Jan-20 00:34N 29°39' W 091°06'0 0.0
2015-Jan-19 23:33N 29°39' W 091°06'1 0.6
2015-Jan-19 22:29N 29°39' W 091°06'1 1.2
2015-Jan-19 21:33N 29°40' W 091°06'0 0.0
2015-Jan-19 20:33N 29°40' W 091°06'1 0.6
2015-Jan-19 19:33N 29°39' W 091°06'0 0.0
2015-Jan-19 18:33N 29°39' W 091°06'0 0.0
2015-Jan-19 17:33N 29°39' W 091°06'0 0.0
2015-Jan-19 16:33N 29°39' W 091°06'0 0.0
2015-Jan-19 15:34N 29°39' W 091°06'0 0.0
2015-Jan-19 14:33N 29°39' W 091°06'0 0.1
2015-Jan-19 13:33N 29°39' W 091°06'0 0.0
2015-Jan-19 12:33N 29°39' W 091°06'0 0.0
2015-Jan-19 11:33N 29°39' W 091°06'0 0.0
2015-Jan-19 10:33N 29°39' W 091°06'0 0.0
2015-Jan-19 09:33N 29°39' W 091°06'0 0.0
2015-Jan-19 08:33N 29°39' W 091°06'0 0.0
2015-Jan-19 07:33N 29°39' W 091°06'0 0.0
2015-Jan-19 06:33N 29°39' W 091°06'0 0.0
2015-Jan-19 05:33N 29°39' W 091°06'0 0.0
2015-Jan-19 04:33N 29°39' W 091°06'0 0.0
2015-Jan-19 03:33N 29°39' W 091°06'0 0.0
2015-Jan-19 02:32N 29°39' W 091°06'0 0.0
2015-Jan-19 01:33N 29°39' W 091°06'0 0.0
2015-Jan-19 00:20N 29°39' W 091°06'0 0.0
2015-Jan-18 23:20N 29°39' W 091°06'0 0.0
2015-Jan-18 22:19N 29°39' W 091°06'0 0.0
2015-Jan-18 16:33N 29°39' W 091°06'0 0.0
2015-Jan-18 15:31N 29°39' W 091°06'0 0.0
2015-Jan-18 14:33N 29°39' W 091°06'0 0.0
2015-Jan-18 13:33N 29°39' W 091°06'0 0.0
2015-Jan-18 12:33N 29°39' W 091°06'0 0.0
2015-Jan-18 11:33N 29°39' W 091°06'0 0.0
2015-Jan-18 10:33N 29°39' W 091°06'0 0.0
2015-Jan-18 09:33N 29°39' W 091°06'0 0.0
2015-Jan-18 08:33N 29°39' W 091°06'0 0.0
2015-Jan-18 07:33N 29°39' W 091°06'0 0.0
2015-Jan-18 06:33N 29°39' W 091°06'0 0.0
2015-Jan-18 05:33N 29°39' W 091°06'0 0.0
2015-Jan-18 04:33N 29°39' W 091°06'0 0.0
2015-Jan-18 03:33N 29°39' W 091°06'0 0.0
2015-Jan-18 02:33N 29°39' W 091°06'0 0.0
2015-Jan-18 01:33N 29°39' W 091°06'0 0.0
2015-Jan-18 00:33N 29°39' W 091°06'0 0.0
2015-Jan-17 23:33N 29°39' W 091°06'0 0.0
2015-Jan-17 22:33N 29°39' W 091°06'0 0.0
2015-Jan-17 21:33N 29°39' W 091°06'0 0.0
2015-Jan-17 20:33N 29°39' W 091°06'0 0.0
2015-Jan-17 19:33N 29°39' W 091°06'0 0.0
2015-Jan-17 18:26N 29°39' W 091°06'0 0.0
2015-Jan-17 17:32N 29°39' W 091°06'0 0.0
2015-Jan-17 16:33N 29°39' W 091°06'0 0.0
2015-Jan-17 15:33N 29°39' W 091°06'0 0.0
2015-Jan-17 14:33N 29°39' W 091°06'0 0.0
2015-Jan-17 13:33N 29°39' W 091°06'0 0.0
2015-Jan-17 12:33N 29°39' W 091°06'0 0.0
2015-Jan-17 11:33N 29°39' W 091°06'0 0.0
2015-Jan-17 10:33N 29°39' W 091°06'0 0.0
2015-Jan-17 09:33N 29°39' W 091°06'0 0.0
2015-Jan-17 08:33N 29°39' W 091°06'0 0.0
2015-Jan-17 07:33N 29°39' W 091°06'0 0.0
2015-Jan-17 06:33N 29°39' W 091°06'0 0.0
2015-Jan-17 05:33N 29°39' W 091°06'0 0.0
2015-Jan-17 04:33N 29°39' W 091°06'0 0.0
2015-Jan-17 03:33N 29°39' W 091°06'0 0.0
2015-Jan-17 02:33N 29°39' W 091°06'0 0.0
2015-Jan-17 01:33N 29°39' W 091°06'0 0.0
2015-Jan-17 00:33N 29°39' W 091°06'0 0.0
2015-Jan-16 23:33N 29°39' W 091°06'0 0.0
2015-Jan-16 22:33N 29°39' W 091°06'0 0.0
2015-Jan-16 21:33N 29°39' W 091°06'0 0.0
2015-Jan-16 20:33N 29°39' W 091°06'0 0.0
2015-Jan-16 19:33N 29°39' W 091°06'0 0.0
2015-Jan-16 18:33N 29°39' W 091°06'0 0.0
2015-Jan-16 17:33N 29°39' W 091°06'0 0.0
2015-Jan-16 16:33N 29°39' W 091°06'0 0.0
2015-Jan-16 15:33N 29°39' W 091°06'1 0.8
2015-Jan-16 14:33N 29°38' W 091°06'1 1.1
2015-Jan-16 13:33N 29°39' W 091°06'0 0.0
2015-Jan-16 12:33N 29°39' W 091°06'1 0.7
2015-Jan-16 11:33N 29°39' W 091°06'5 4.3
2015-Jan-16 10:29N 29°37' W 091°01'3 2.2
2015-Jan-16 09:14N 29°36' W 090°58'50 3.6
2015-Jan-15 19:30N 29°52' W 090°04'2 2.5
2015-Jan-15 18:32N 29°55' W 090°05'0 0.2
2015-Jan-15 17:33N 29°55' W 090°05'34 3.4
2015-Jan-15 07:33N 30°01' W 090°44'0 0.0
2015-Jan-15 06:28N 30°01' W 090°44'0 0.0
2015-Jan-15 05:33N 30°01' W 090°44'0 0.0
2015-Jan-15 04:15N 30°01' W 090°44'37 3.1
2015-Jan-14 16:28N 29°58' W 090°02'157 4.2
2015-Jan-13 03:18N 30°18' W 087°01'7 8.8
2015-Jan-13 02:33N 30°20' W 086°54'9 8.7
2015-Jan-13 01:33N 30°20' W 086°44'10 8.6
2015-Jan-13 00:21N 30°20' W 086°32'262 7.7
2015-Jan-11 14:20N 27°43' W 082°33'6 8.0
2015-Jan-11 13:33N 27°48' W 082°29'8 7.7
2015-Jan-11 12:33N 27°55' W 082°27'1 1.0
2015-Jan-11 11:33N 27°56' W 082°27'0 0.0
2015-Jan-11 10:33N 27°56' W 082°27'0 0.0
2015-Jan-11 09:33N 27°56' W 082°27'0 0.0
2015-Jan-11 08:33N 27°56' W 082°27'0 0.0
2015-Jan-11 07:33N 27°56' W 082°27'0 0.0
2015-Jan-11 06:33N 27°56' W 082°27'0 0.0
2015-Jan-11 05:33N 27°56' W 082°27'0 0.0
2015-Jan-11 04:33N 27°56' W 082°27'0 0.0
2015-Jan-11 03:33N 27°56' W 082°27'0 0.0
2015-Jan-11 02:33N 27°56' W 082°27'0 0.0
2015-Jan-11 01:33N 27°56' W 082°27'  
Track history (hours):
 
Tides and Currents Weather Stations Pressure Air Temp Water Temp Dewpoint Dewpoint Depression Visibility Wind Speed Wind Dir Waves Ship Positions

Champion

Owner: MC CULLEY MARINE SERVICES INC, FORT PIERCE, FL. More information available from US FCC via Universal Licensing System and Coast Guard Vessel Documentation Center.

Last reported at 2015-Jan-21 00:33 UTC. Time now 2015-Jan-26 20:34 UTC.
Position N 29°19' W 091°26'.

Length 20 m; draft 1.7 m.

Type: Towing. MMSI: 367005250.

Date/timePositionNaut miles runAvg speedWind from/ knotsBaromVisibWave heightAir tempDewpointWater temp
2015-Jan-21 00:33N 29°19' W 091°26'4 3.6
2015-Jan-20 23:31N 29°22' W 091°24'4 3.7
2015-Jan-20 22:33N 29°24' W 091°21'4 3.6
2015-Jan-20 21:33N 29°27' W 091°18'3 2.6
2015-Jan-20 20:33N 29°29' W 091°16'4 3.5
2015-Jan-20 19:33N 29°32' W 091°15'3 3.5
2015-Jan-20 18:33N 29°35' W 091°12'4 3.7
2015-Jan-20 17:33N 29°37' W 091°08'3 3.1
2015-Jan-20 16:33N 29°38' W 091°05'1 1.1
2015-Jan-20 15:33N 29°39' W 091°06'0 0.0
2015-Jan-20 14:33N 29°39' W 091°06'0 0.0
2015-Jan-20 13:33N 29°39' W 091°06'0 0.0
2015-Jan-20 12:33N 29°39' W 091°06'0 0.0
2015-Jan-20 11:33N 29°39' W 091°06'0 0.0
2015-Jan-20 10:33N 29°39' W 091°06'0 0.0
2015-Jan-20 09:33N 29°39' W 091°06'0 0.0
2015-Jan-20 08:33N 29°39' W 091°06'0 0.0
2015-Jan-20 07:33N 29°39' W 091°06'0 0.0
2015-Jan-20 06:33N 29°39' W 091°06'0 0.0
2015-Jan-20 05:33N 29°39' W 091°06'0 0.0
2015-Jan-20 04:33N 29°39' W 091°06'0 0.0
2015-Jan-20 03:33N 29°39' W 091°06'0 0.0
2015-Jan-20 02:33N 29°39' W 091°06'0 0.0
2015-Jan-20 01:33N 29°39' W 091°06'0 0.0
2015-Jan-20 00:34N 29°39' W 091°06'0 0.0
2015-Jan-19 23:33N 29°39' W 091°06'1 0.6
2015-Jan-19 22:29N 29°39' W 091°06'1 1.2
2015-Jan-19 21:33N 29°40' W 091°06'0 0.0
2015-Jan-19 20:33N 29°40' W 091°06'1 0.6
2015-Jan-19 19:33N 29°39' W 091°06'0 0.0
2015-Jan-19 18:33N 29°39' W 091°06'0 0.0
2015-Jan-19 17:33N 29°39' W 091°06'0 0.0
2015-Jan-19 16:33N 29°39' W 091°06'0 0.0
2015-Jan-19 15:34N 29°39' W 091°06'0 0.0
2015-Jan-19 14:33N 29°39' W 091°06'0 0.1
2015-Jan-19 13:33N 29°39' W 091°06'0 0.0
2015-Jan-19 12:33N 29°39' W 091°06'0 0.0
2015-Jan-19 11:33N 29°39' W 091°06'0 0.0
2015-Jan-19 10:33N 29°39' W 091°06'0 0.0
2015-Jan-19 09:33N 29°39' W 091°06'0 0.0
2015-Jan-19 08:33N 29°39' W 091°06'0 0.0
2015-Jan-19 07:33N 29°39' W 091°06'0 0.0
2015-Jan-19 06:33N 29°39' W 091°06'0 0.0
2015-Jan-19 05:33N 29°39' W 091°06'0 0.0
2015-Jan-19 04:33N 29°39' W 091°06'0 0.0
2015-Jan-19 03:33N 29°39' W 091°06'0 0.0
2015-Jan-19 02:32N 29°39' W 091°06'0 0.0
2015-Jan-19 01:33N 29°39' W 091°06'0 0.0
2015-Jan-19 00:20N 29°39' W 091°06'0 0.0
2015-Jan-18 23:20N 29°39' W 091°06'0 0.0
2015-Jan-18 22:19N 29°39' W 091°06'0 0.0
2015-Jan-18 16:33N 29°39' W 091°06'0 0.0
2015-Jan-18 15:31N 29°39' W 091°06'0 0.0
2015-Jan-18 14:33N 29°39' W 091°06'0 0.0
2015-Jan-18 13:33N 29°39' W 091°06'0 0.0
2015-Jan-18 12:33N 29°39' W 091°06'0 0.0
2015-Jan-18 11:33N 29°39' W 091°06'0 0.0
2015-Jan-18 10:33N 29°39' W 091°06'0 0.0
2015-Jan-18 09:33N 29°39' W 091°06'0 0.0
2015-Jan-18 08:33N 29°39' W 091°06'0 0.0
2015-Jan-18 07:33N 29°39' W 091°06'0 0.0
2015-Jan-18 06:33N 29°39' W 091°06'0 0.0
2015-Jan-18 05:33N 29°39' W 091°06'0 0.0
2015-Jan-18 04:33N 29°39' W 091°06'0 0.0
2015-Jan-18 03:33N 29°39' W 091°06'0 0.0
2015-Jan-18 02:33N 29°39' W 091°06'0 0.0
2015-Jan-18 01:33N 29°39' W 091°06'0 0.0
2015-Jan-18 00:33N 29°39' W 091°06'0 0.0
2015-Jan-17 23:33N 29°39' W 091°06'0 0.0
2015-Jan-17 22:33N 29°39' W 091°06'0 0.0
2015-Jan-17 21:33N 29°39' W 091°06'0 0.0
2015-Jan-17 20:33N 29°39' W 091°06'0 0.0
2015-Jan-17 19:33N 29°39' W 091°06'0 0.0
2015-Jan-17 18:26N 29°39' W 091°06'0 0.0
2015-Jan-17 17:32N 29°39' W 091°06'0 0.0
2015-Jan-17 16:33N 29°39' W 091°06'0 0.0
2015-Jan-17 15:33N 29°39' W 091°06'0 0.0
2015-Jan-17 14:33N 29°39' W 091°06'0 0.0
2015-Jan-17 13:33N 29°39' W 091°06'0 0.0
2015-Jan-17 12:33N 29°39' W 091°06'0 0.0
2015-Jan-17 11:33N 29°39' W 091°06'0 0.0
2015-Jan-17 10:33N 29°39' W 091°06'0 0.0
2015-Jan-17 09:33N 29°39' W 091°06'0 0.0
2015-Jan-17 08:33N 29°39' W 091°06'0 0.0
2015-Jan-17 07:33N 29°39' W 091°06'0 0.0
2015-Jan-17 06:33N 29°39' W 091°06'0 0.0
2015-Jan-17 05:33N 29°39' W 091°06'0 0.0
2015-Jan-17 04:33N 29°39' W 091°06'0 0.0
2015-Jan-17 03:33N 29°39' W 091°06'0 0.0
2015-Jan-17 02:33N 29°39' W 091°06'0 0.0
2015-Jan-17 01:33N 29°39' W 091°06'0 0.0
2015-Jan-17 00:33N 29°39' W 091°06'0 0.0
2015-Jan-16 23:33N 29°39' W 091°06'0 0.0
2015-Jan-16 22:33N 29°39' W 091°06'0 0.0
2015-Jan-16 21:33N 29°39' W 091°06'0 0.0
2015-Jan-16 20:33N 29°39' W 091°06'0 0.0
2015-Jan-16 19:33N 29°39' W 091°06'0 0.0
2015-Jan-16 18:33N 29°39' W 091°06'0 0.0
2015-Jan-16 17:33N 29°39' W 091°06'0 0.0
2015-Jan-16 16:33N 29°39' W 091°06'0 0.0
2015-Jan-16 15:33N 29°39' W 091°06'1 0.8
2015-Jan-16 14:33N 29°38' W 091°06'1 1.1
2015-Jan-16 13:33N 29°39' W 091°06'0 0.0
2015-Jan-16 12:33N 29°39' W 091°06'1 0.7
2015-Jan-16 11:33N 29°39' W 091°06'5 4.3
2015-Jan-16 10:29N 29°37' W 091°01'3 2.2
2015-Jan-16 09:14N 29°36' W 090°58'50 3.6
2015-Jan-15 19:30N 29°52' W 090°04'2 2.5
2015-Jan-15 18:32N 29°55' W 090°05'0 0.2
2015-Jan-15 17:33N 29°55' W 090°05'34 3.4
2015-Jan-15 07:33N 30°01' W 090°44'0 0.0
2015-Jan-15 06:28N 30°01' W 090°44'0 0.0
2015-Jan-15 05:33N 30°01' W 090°44'0 0.0
2015-Jan-15 04:15N 30°01' W 090°44'37 3.1
2015-Jan-14 16:28N 29°58' W 090°02'157 4.2
2015-Jan-13 03:18N 30°18' W 087°01'7 8.8
2015-Jan-13 02:33N 30°20' W 086°54'9 8.7
2015-Jan-13 01:33N 30°20' W 086°44'10 8.6
2015-Jan-13 00:21N 30°20' W 086°32'262 7.7
2015-Jan-11 14:20N 27°43' W 082°33'6 8.0
2015-Jan-11 13:33N 27°48' W 082°29'8 7.7
2015-Jan-11 12:33N 27°55' W 082°27'1 1.0
2015-Jan-11 11:33N 27°56' W 082°27'0 0.0
2015-Jan-11 10:33N 27°56' W 082°27'0 0.0
2015-Jan-11 09:33N 27°56' W 082°27'0 0.0
2015-Jan-11 08:33N 27°56' W 082°27'0 0.0
2015-Jan-11 07:33N 27°56' W 082°27'0 0.0
2015-Jan-11 06:33N 27°56' W 082°27'0 0.0
2015-Jan-11 05:33N 27°56' W 082°27'0 0.0
2015-Jan-11 04:33N 27°56' W 082°27'0 0.0
2015-Jan-11 03:33N 27°56' W 082°27'0 0.0
2015-Jan-11 02:33N 27°56' W 082°27'0 0.0
2015-Jan-11 01:33N 27°56' W 082°27'  

Dump ship's entire track history